Wiley Ford, WV

1:27 AM EDT on August 04, 2015 (GMT -0400)
Greater Cumberland Regional | | Change Station
CLOSE
Current Station
Airport
Location: Cumberland,
Elevation: 774 ft
Nearby Weather Stations

Elev 774 ft 39.62 °N, 78.76 °W | Updated 16 minutes ago

Partly Cloudy
Partly Cloudy
73 °F
Feels Like 73 °F
N
0
Wind Variable Wind from North

Today
High -- | Low -- °F
--% Chance of Precip.
Yesterday
High -- | Low -- °F
Precip. -- in
6:16 AM 8:24 PM
Waning Gibbous, 81% visible
Pressure 29.90 in
Visibility 10.0 miles
Clouds Scattered Clouds 4300 ft
Scattered Clouds 5000 ft
Dew Point 64 °F
Humidity 73%
Rainfall 0.00 in
Snow Depth Not available.
UV 0 out of 12
Pollen 6.90 out of 12
Air Quality Not available.
Flu Activity Not available.
METAR KCBE 040511Z AUTO 00000KT 10SM SCT043 SCT050 23/18 A2990 RMK AO1

More Conditions Fewer Conditions

Pressure 29.90 in
Visibility 10.0 miles
Clouds Scattered Clouds 4300 ft
Scattered Clouds 5000 ft
Dew Point 64 °F
Humidity 73%
Rainfall 0.00 in
Snow Depth Not available.
UV 0 out of 12
Pollen 6.90 out of 12
Air Quality Not available.
Flu Activity Not available.
METAR KCBE 040511Z AUTO 00000KT 10SM SCT043 SCT050 23/18 A2990 RMK AO1

More Conditions Fewer Conditions

Nowcast | as of 12:01 am EDT on August 4, 2015

a strong thunderstorm will affect southwestern Allegany and central Mineral counties... At 1200 am EDT...a strong thunderstorm was near Deer Park...or 7 miles northeast of Mountain Lake Park...moving east at 35 mph. Winds in excess of 30 mph and pea size hail are possible with this storm. Locations impacted include... Keyser...Westernport...Lonaconing...Piedmont...Barton...Luke... Bloomington...Woodland...Franklin...Reeses Mill...Reynolds... Midland...Dogwood Flats...Warnocks...Rawlings and McCoole. Lat...Lon 3961 7884 3942 7885 3942 7913 3943 7913 3943 7911 3944 7912 3945 7910 3946 7911 3946 7910 3947 7910 3947 7908 3948 7907 3961 7899 time...Mot...loc 0400z 261deg 32kt 3947 7927

×

10-Day Weather Forecast

×

Almanac

Astronomy

Aug. 04, 2015 Rise Set
Actual Time
Civil Twilight
Nautical Twilight
Astronomical Twilight
Moon
Length of Visible Light
Length of Day
Tomorrow will be .
, % of the Moon is Illuminated

Today's Extremes

State Highs State Lows

Community

WunderPhotos

Upload Photos

1,843,868 photos uploaded!

WunderBlogs® & News

Nearby

Air Quality

  Air Quality AQ Index Pollutant
Not available.

Snow Depth

Station Depth Elevation

Earthquake Activity

City Distance Mag. Time & Date
Minimum magnitude displayed is 2.5.

Coastal Water Temperatures

Place Temperature

Stations

Nearby Weather Stations

Station Location Temp. Windchill Dew Point Humidity Wind Precip. Elev Updated Type